sensor_id;sensor_type;location;lat;lon;timestamp;pressure;altitude;pressure_sealevel;temperature;humidity
62926;BME280;55732;52.248;-0.844;2022-12-18T00:00:39;101365.19;;;-0.97;89.94
62926;BME280;55732;52.248;-0.844;2022-12-18T00:03:05;101359.96;;;-1.01;89.68
62926;BME280;55732;52.248;-0.844;2022-12-18T00:05:30;101360.03;;;-1.06;89.50
62926;BME280;55732;52.248;-0.844;2022-12-18T00:07:55;101362.30;;;-1.11;89.81
62926;BME280;55732;52.248;-0.844;2022-12-18T00:10:21;101363.55;;;-1.13;90.35
62926;BME280;55732;52.248;-0.844;2022-12-18T00:12:46;101351.44;;;-1.14;90.40
62926;BME280;55732;52.248;-0.844;2022-12-18T00:15:11;101341.23;;;-1.17;90.38
62926;BME280;55732;52.248;-0.844;2022-12-18T00:17:37;101337.79;;;-1.20;90.64
62926;BME280;55732;52.248;-0.844;2022-12-18T00:20:02;101340.50;;;-1.21;90.93
62926;BME280;55732;52.248;-0.844;2022-12-18T00:22:28;101343.58;;;-1.21;91.04
62926;BME280;55732;52.248;-0.844;2022-12-18T00:24:53;101349.52;;;-1.20;91.42
62926;BME280;55732;52.248;-0.844;2022-12-18T00:27:19;101343.02;;;-1.19;91.36
62926;BME280;55732;52.248;-0.844;2022-12-18T00:29:44;101342.27;;;-1.17;91.48
62926;BME280;55732;52.248;-0.844;2022-12-18T00:32:09;101346.90;;;-1.15;91.67
62926;BME280;55732;52.248;-0.844;2022-12-18T00:34:35;101343.80;;;-1.12;91.49
62926;BME280;55732;52.248;-0.844;2022-12-18T00:37:00;101338.45;;;-1.08;91.75
62926;BME280;55732;52.248;-0.844;2022-12-18T00:39:26;101338.68;;;-1.04;91.79
62926;BME280;55732;52.248;-0.844;2022-12-18T00:41:51;101338.14;;;-1.01;91.69
62926;BME280;55732;52.248;-0.844;2022-12-18T00:44:35;101344.89;;;-0.98;91.65
62926;BME280;55732;52.248;-0.844;2022-12-18T00:47:00;101333.30;;;-1.02;91.57
62926;BME280;55732;52.248;-0.844;2022-12-18T00:49:26;101343.38;;;-0.98;91.62
62926;BME280;55732;52.248;-0.844;2022-12-18T00:51:51;101345.77;;;-0.98;91.64
62926;BME280;55732;52.248;-0.844;2022-12-18T00:54:17;101338.06;;;-1.00;91.68
62926;BME280;55732;52.248;-0.844;2022-12-18T00:56:42;101332.40;;;-1.02;91.75
62926;BME280;55732;52.248;-0.844;2022-12-18T00:59:08;101322.96;;;-1.04;91.78
62926;BME280;55732;52.248;-0.844;2022-12-18T01:01:33;101318.92;;;-1.05;91.89
62926;BME280;55732;52.248;-0.844;2022-12-18T01:04:00;101316.92;;;-1.07;91.72
62926;BME280;55732;52.248;-0.844;2022-12-18T01:06:25;101319.99;;;-1.08;91.67
62926;BME280;55732;52.248;-0.844;2022-12-18T01:08:51;101320.98;;;-1.08;91.72
62926;BME280;55732;52.248;-0.844;2022-12-18T01:11:17;101317.80;;;-1.07;91.88
62926;BME280;55732;52.248;-0.844;2022-12-18T01:13:43;101317.33;;;-1.06;91.80
62926;BME280;55732;52.248;-0.844;2022-12-18T01:16:10;101319.80;;;-1.05;91.79
62926;BME280;55732;52.248;-0.844;2022-12-18T01:18:36;101319.92;;;-1.03;91.76
62926;BME280;55732;52.248;-0.844;2022-12-18T01:21:05;101317.22;;;-1.05;91.49
62926;BME280;55732;52.248;-0.844;2022-12-18T01:23:30;101318.54;;;-1.09;91.29
62926;BME280;55732;52.248;-0.844;2022-12-18T01:25:56;101309.14;;;-1.13;91.39
62926;BME280;55732;52.248;-0.844;2022-12-18T01:28:21;101300.10;;;-1.17;91.41
62926;BME280;55732;52.248;-0.844;2022-12-18T01:30:46;101298.77;;;-1.22;91.27
62926;BME280;55732;52.248;-0.844;2022-12-18T01:33:11;101294.59;;;-1.28;91.21
62926;BME280;55732;52.248;-0.844;2022-12-18T01:35:41;101298.69;;;-1.36;91.04
62926;BME280;55732;52.248;-0.844;2022-12-18T01:38:06;101295.69;;;-1.46;90.76
62926;BME280;55732;52.248;-0.844;2022-12-18T01:40:32;101293.25;;;-1.55;90.96
62926;BME280;55732;52.248;-0.844;2022-12-18T01:42:57;101294.56;;;-1.62;90.93
62926;BME280;55732;52.248;-0.844;2022-12-18T01:45:26;101296.69;;;-1.70;91.03
62926;BME280;55732;52.248;-0.844;2022-12-18T01:47:53;101290.92;;;-1.77;91.24
62926;BME280;55732;52.248;-0.844;2022-12-18T01:52:53;101291.10;;;-1.85;91.49
62926;BME280;55732;52.248;-0.844;2022-12-18T01:55:20;101287.88;;;-1.87;91.68
62926;BME280;55732;52.248;-0.844;2022-12-18T01:57:46;101290.30;;;-1.87;91.81
62926;BME280;55732;52.248;-0.844;2022-12-18T02:00:13;101295.02;;;-1.89;91.82
62926;BME280;55732;52.248;-0.844;2022-12-18T02:02:43;101295.90;;;-1.92;91.90
62926;BME280;55732;52.248;-0.844;2022-12-18T02:05:09;101304.27;;;-1.93;92.10
62926;BME280;55732;52.248;-0.844;2022-12-18T02:10:20;101302.86;;;-1.99;92.01
62926;BME280;55732;52.248;-0.844;2022-12-18T02:12:56;101303.48;;;-2.00;92.00
62926;BME280;55732;52.248;-0.844;2022-12-18T02:18:26;101305.00;;;-2.04;92.10
62926;BME280;55732;52.248;-0.844;2022-12-18T02:23:43;101314.30;;;-2.02;92.04
62926;BME280;55732;52.248;-0.844;2022-12-18T02:28:41;101314.61;;;-2.07;91.83
62926;BME280;55732;52.248;-0.844;2022-12-18T02:31:08;101316.95;;;-2.11;91.82
62926;BME280;55732;52.248;-0.844;2022-12-18T02:33:36;101318.91;;;-2.16;91.90
62926;BME280;55732;52.248;-0.844;2022-12-18T02:36:02;101323.21;;;-2.19;92.11
62926;BME280;55732;52.248;-0.844;2022-12-18T02:38:28;101328.16;;;-2.20;92.27
62926;BME280;55732;52.248;-0.844;2022-12-18T02:40:55;101331.95;;;-2.20;92.37
62926;BME280;55732;52.248;-0.844;2022-12-18T02:43:21;101330.84;;;-2.22;92.34
62926;BME280;55732;52.248;-0.844;2022-12-18T02:45:47;101332.84;;;-2.23;92.32
62926;BME280;55732;52.248;-0.844;2022-12-18T02:48:13;101336.70;;;-2.24;92.31
62926;BME280;55732;52.248;-0.844;2022-12-18T02:50:41;101337.68;;;-2.25;92.41
62926;BME280;55732;52.248;-0.844;2022-12-18T02:58:52;101332.91;;;-2.30;92.44
62926;BME280;55732;52.248;-0.844;2022-12-18T03:01:22;101332.39;;;-2.32;92.37
62926;BME280;55732;52.248;-0.844;2022-12-18T03:03:51;101325.20;;;-2.34;92.33
62926;BME280;55732;52.248;-0.844;2022-12-18T03:08:44;101312.13;;;-2.39;92.36
62926;BME280;55732;52.248;-0.844;2022-12-18T03:11:12;101304.02;;;-2.42;92.39
62926;BME280;55732;52.248;-0.844;2022-12-18T03:13:40;101300.91;;;-2.45;92.44
62926;BME280;55732;52.248;-0.844;2022-12-18T03:16:09;101295.50;;;-2.46;92.36
62926;BME280;55732;52.248;-0.844;2022-12-18T03:18:39;101290.91;;;-2.48;92.44
62926;BME280;55732;52.248;-0.844;2022-12-18T03:21:07;101291.31;;;-2.46;92.65
62926;BME280;55732;52.248;-0.844;2022-12-18T03:23:36;101296.73;;;-2.46;92.75
62926;BME280;55732;52.248;-0.844;2022-12-18T03:26:05;101295.13;;;-2.43;92.85
62926;BME280;55732;52.248;-0.844;2022-12-18T03:28:32;101293.77;;;-2.41;92.92
62926;BME280;55732;52.248;-0.844;2022-12-18T03:30:59;101293.18;;;-2.39;92.75
62926;BME280;55732;52.248;-0.844;2022-12-18T03:33:27;101294.80;;;-2.38;92.88
62926;BME280;55732;52.248;-0.844;2022-12-18T03:35:53;101289.19;;;-2.37;92.86
62926;BME280;55732;52.248;-0.844;2022-12-18T03:38:19;101291.80;;;-2.36;92.93
62926;BME280;55732;52.248;-0.844;2022-12-18T03:40:53;101290.78;;;-2.36;93.05
62926;BME280;55732;52.248;-0.844;2022-12-18T03:44:05;101287.12;;;-2.37;93.10
62926;BME280;55732;52.248;-0.844;2022-12-18T03:48:48;101267.72;;;-2.41;93.27
62926;BME280;55732;52.248;-0.844;2022-12-18T03:51:18;101257.70;;;-2.41;93.40
62926;BME280;55732;52.248;-0.844;2022-12-18T03:56:21;101247.06;;;-2.38;93.40
62926;BME280;55732;52.248;-0.844;2022-12-18T03:58:47;101244.02;;;-2.37;93.30
62926;BME280;55732;52.248;-0.844;2022-12-18T04:01:14;101248.54;;;-2.39;93.19
62926;BME280;55732;52.248;-0.844;2022-12-18T04:03:41;101255.68;;;-2.43;93.15
62926;BME280;55732;52.248;-0.844;2022-12-18T04:06:07;101256.05;;;-2.45;93.14
62926;BME280;55732;52.248;-0.844;2022-12-18T04:08:33;101256.64;;;-2.47;93.05
62926;BME280;55732;52.248;-0.844;2022-12-18T04:11:00;101254.36;;;-2.51;92.98
62926;BME280;55732;52.248;-0.844;2022-12-18T04:13:30;101245.80;;;-2.55;92.97
62926;BME280;55732;52.248;-0.844;2022-12-18T04:15:56;101237.89;;;-2.57;93.03
62926;BME280;55732;52.248;-0.844;2022-12-18T04:18:22;101234.33;;;-2.59;93.06
62926;BME280;55732;52.248;-0.844;2022-12-18T04:20:47;101232.27;;;-2.62;93.13
62926;BME280;55732;52.248;-0.844;2022-12-18T04:23:12;101230.05;;;-2.64;93.16
62926;BME280;55732;52.248;-0.844;2022-12-18T04:25:38;101227.52;;;-2.66;93.36
62926;BME280;55732;52.248;-0.844;2022-12-18T04:28:03;101230.81;;;-2.66;93.53
62926;BME280;55732;52.248;-0.844;2022-12-18T04:30:28;101230.94;;;-2.64;93.68
62926;BME280;55732;52.248;-0.844;2022-12-18T04:32:53;101224.98;;;-2.63;93.71
62926;BME280;55732;52.248;-0.844;2022-12-18T04:35:19;101212.03;;;-2.63;93.79
62926;BME280;55732;52.248;-0.844;2022-12-18T04:37:44;101206.56;;;-2.65;93.69
62926;BME280;55732;52.248;-0.844;2022-12-18T04:40:09;101205.02;;;-2.63;93.71
62926;BME280;55732;52.248;-0.844;2022-12-18T04:42:35;101201.33;;;-2.61;93.79
62926;BME280;55732;52.248;-0.844;2022-12-18T04:45:00;101201.58;;;-2.59;93.80
62926;BME280;55732;52.248;-0.844;2022-12-18T04:47:25;101203.88;;;-2.58;93.86
62926;BME280;55732;52.248;-0.844;2022-12-18T04:49:51;101204.19;;;-2.56;93.95
62926;BME280;55732;52.248;-0.844;2022-12-18T04:52:16;101201.32;;;-2.52;94.12
62926;BME280;55732;52.248;-0.844;2022-12-18T04:54:41;101198.11;;;-2.49;94.17
62926;BME280;55732;52.248;-0.844;2022-12-18T04:57:06;101189.20;;;-2.45;94.07
62926;BME280;55732;52.248;-0.844;2022-12-18T04:59:32;101186.45;;;-2.42;94.03
62926;BME280;55732;52.248;-0.844;2022-12-18T05:01:57;101170.77;;;-2.41;93.91
62926;BME280;55732;52.248;-0.844;2022-12-18T05:04:22;101155.98;;;-2.44;94.06
62926;BME280;55732;52.248;-0.844;2022-12-18T05:06:48;101149.81;;;-2.43;94.03
62926;BME280;55732;52.248;-0.844;2022-12-18T05:09:13;101140.30;;;-2.44;94.09
62926;BME280;55732;52.248;-0.844;2022-12-18T05:11:38;101136.52;;;-2.43;94.02
62926;BME280;55732;52.248;-0.844;2022-12-18T05:14:03;101121.58;;;-2.42;94.19
62926;BME280;55732;52.248;-0.844;2022-12-18T05:16:29;101119.81;;;-2.40;94.22
62926;BME280;55732;52.248;-0.844;2022-12-18T05:18:54;101114.86;;;-2.40;94.32
62926;BME280;55732;52.248;-0.844;2022-12-18T05:21:19;101105.86;;;-2.40;94.27
62926;BME280;55732;52.248;-0.844;2022-12-18T05:23:44;101098.88;;;-2.41;94.31
62926;BME280;55732;52.248;-0.844;2022-12-18T05:26:11;101094.00;;;-2.42;94.49
62926;BME280;55732;52.248;-0.844;2022-12-18T05:28:39;101095.23;;;-2.42;94.51
62926;BME280;55732;52.248;-0.844;2022-12-18T05:31:04;101097.67;;;-2.39;94.52
62926;BME280;55732;52.248;-0.844;2022-12-18T05:33:30;101084.59;;;-2.39;94.64
62926;BME280;55732;52.248;-0.844;2022-12-18T05:35:57;101089.20;;;-2.39;94.57
62926;BME280;55732;52.248;-0.844;2022-12-18T05:38:23;101093.22;;;-2.38;94.67
62926;BME280;55732;52.248;-0.844;2022-12-18T05:40:49;101098.61;;;-2.37;94.67
62926;BME280;55732;52.248;-0.844;2022-12-18T05:43:15;101102.26;;;-2.37;94.64
62926;BME280;55732;52.248;-0.844;2022-12-18T05:45:40;101101.59;;;-2.37;94.62
62926;BME280;55732;52.248;-0.844;2022-12-18T05:48:06;101101.83;;;-2.35;94.59
62926;BME280;55732;52.248;-0.844;2022-12-18T05:50:35;101093.55;;;-2.35;94.61
62926;BME280;55732;52.248;-0.844;2022-12-18T05:53:01;101084.11;;;-2.34;94.58
62926;BME280;55732;52.248;-0.844;2022-12-18T05:55:26;101078.59;;;-2.34;94.46
62926;BME280;55732;52.248;-0.844;2022-12-18T05:57:51;101082.36;;;-2.35;94.54
62926;BME280;55732;52.248;-0.844;2022-12-18T06:00:17;101091.98;;;-2.36;94.51
62926;BME280;55732;52.248;-0.844;2022-12-18T06:02:45;101095.91;;;-2.36;94.52
62926;BME280;55732;52.248;-0.844;2022-12-18T06:05:11;101088.97;;;-2.37;94.50
62926;BME280;55732;52.248;-0.844;2022-12-18T06:07:36;101079.59;;;-2.38;94.54
62926;BME280;55732;52.248;-0.844;2022-12-18T06:10:02;101067.71;;;-2.41;94.42
62926;BME280;55732;52.248;-0.844;2022-12-18T06:12:27;101060.85;;;-2.40;94.60
62926;BME280;55732;52.248;-0.844;2022-12-18T06:14:52;101058.71;;;-2.41;94.74
62926;BME280;55732;52.248;-0.844;2022-12-18T06:17:17;101057.83;;;-2.42;94.67
62926;BME280;55732;52.248;-0.844;2022-12-18T06:19:43;101064.19;;;-2.42;94.65
62926;BME280;55732;52.248;-0.844;2022-12-18T06:22:08;101061.30;;;-2.41;94.66
62926;BME280;55732;52.248;-0.844;2022-12-18T06:24:33;101050.19;;;-2.40;94.65
62926;BME280;55732;52.248;-0.844;2022-12-18T06:26:59;101057.71;;;-2.38;94.74
62926;BME280;55732;52.248;-0.844;2022-12-18T06:29:24;101053.77;;;-2.38;94.65
62926;BME280;55732;52.248;-0.844;2022-12-18T06:31:49;101057.10;;;-2.36;94.53
62926;BME280;55732;52.248;-0.844;2022-12-18T06:34:14;101052.47;;;-2.36;94.52
62926;BME280;55732;52.248;-0.844;2022-12-18T06:36:40;101038.89;;;-2.35;94.39
62926;BME280;55732;52.248;-0.844;2022-12-18T06:39:05;101040.51;;;-2.34;94.55
62926;BME280;55732;52.248;-0.844;2022-12-18T06:41:30;101045.48;;;-2.34;94.53
62926;BME280;55732;52.248;-0.844;2022-12-18T06:43:57;101053.51;;;-2.33;94.54
62926;BME280;55732;52.248;-0.844;2022-12-18T06:46:22;101056.41;;;-2.30;94.61
62926;BME280;55732;52.248;-0.844;2022-12-18T06:48:48;101062.48;;;-2.27;94.64
62926;BME280;55732;52.248;-0.844;2022-12-18T06:51:18;101064.79;;;-2.23;94.68
62926;BME280;55732;52.248;-0.844;2022-12-18T06:53:43;101065.75;;;-2.18;94.55
62926;BME280;55732;52.248;-0.844;2022-12-18T06:56:08;101069.42;;;-2.14;94.37
62926;BME280;55732;52.248;-0.844;2022-12-18T06:58:33;101071.65;;;-2.11;94.21
62926;BME280;55732;52.248;-0.844;2022-12-18T07:00:59;101064.42;;;-2.08;94.26
62926;BME280;55732;52.248;-0.844;2022-12-18T07:03:25;101051.83;;;-2.05;94.14
62926;BME280;55732;52.248;-0.844;2022-12-18T07:05:50;101044.25;;;-2.02;94.11
62926;BME280;55732;52.248;-0.844;2022-12-18T07:08:15;101041.69;;;-1.98;94.15
62926;BME280;55732;52.248;-0.844;2022-12-18T07:10:41;101041.54;;;-1.95;94.14
62926;BME280;55732;52.248;-0.844;2022-12-18T07:13:07;101033.81;;;-1.91;94.07
62926;BME280;55732;52.248;-0.844;2022-12-18T07:15:32;101034.48;;;-1.89;93.93
62926;BME280;55732;52.248;-0.844;2022-12-18T07:17:58;101026.00;;;-1.86;94.03
62926;BME280;55732;52.248;-0.844;2022-12-18T07:20:23;101015.05;;;-1.84;94.13
62926;BME280;55732;52.248;-0.844;2022-12-18T07:22:48;101008.80;;;-1.82;94.21
62926;BME280;55732;52.248;-0.844;2022-12-18T07:25:13;101001.27;;;-1.81;94.21
62926;BME280;55732;52.248;-0.844;2022-12-18T07:27:39;100992.61;;;-1.78;94.30
62926;BME280;55732;52.248;-0.844;2022-12-18T07:30:04;100990.08;;;-1.77;94.34
62926;BME280;55732;52.248;-0.844;2022-12-18T07:32:30;101007.23;;;-1.72;94.39
62926;BME280;55732;52.248;-0.844;2022-12-18T07:34:55;101008.38;;;-1.67;94.41
62926;BME280;55732;52.248;-0.844;2022-12-18T07:37:20;101004.29;;;-1.63;94.39
62926;BME280;55732;52.248;-0.844;2022-12-18T07:39:46;101004.73;;;-1.58;94.46
62926;BME280;55732;52.248;-0.844;2022-12-18T07:42:11;100992.61;;;-1.56;94.28
62926;BME280;55732;52.248;-0.844;2022-12-18T07:44:55;100982.08;;;-1.52;94.36
62926;BME280;55732;52.248;-0.844;2022-12-18T07:47:20;100976.15;;;-1.50;94.46
62926;BME280;55732;52.248;-0.844;2022-12-18T07:49:45;100977.85;;;-1.47;94.40
62926;BME280;55732;52.248;-0.844;2022-12-18T07:52:11;100974.80;;;-1.43;94.44
62926;BME280;55732;52.248;-0.844;2022-12-18T07:54:37;100979.80;;;-1.39;94.47
62926;BME280;55732;52.248;-0.844;2022-12-18T07:57:02;100981.38;;;-1.36;94.54
62926;BME280;55732;52.248;-0.844;2022-12-18T07:59:28;100989.93;;;-1.31;94.45
62926;BME280;55732;52.248;-0.844;2022-12-18T08:01:53;100991.50;;;-1.28;94.52
62926;BME280;55732;52.248;-0.844;2022-12-18T08:04:18;101000.86;;;-1.24;94.55
62926;BME280;55732;52.248;-0.844;2022-12-18T08:06:43;101004.63;;;-1.18;94.74
62926;BME280;55732;52.248;-0.844;2022-12-18T08:09:09;101007.11;;;-1.10;94.67
62926;BME280;55732;52.248;-0.844;2022-12-18T08:11:34;101019.44;;;-1.05;94.30
62926;BME280;55732;52.248;-0.844;2022-12-18T08:14:00;101026.70;;;-1.02;94.23
62926;BME280;55732;52.248;-0.844;2022-12-18T08:16:26;101023.75;;;-0.99;94.03
62926;BME280;55732;52.248;-0.844;2022-12-18T08:18:52;101015.71;;;-0.98;93.93
62926;BME280;55732;52.248;-0.844;2022-12-18T08:21:22;101012.13;;;-0.97;93.70
62926;BME280;55732;52.248;-0.844;2022-12-18T08:23:48;101014.16;;;-0.98;93.66
62926;BME280;55732;52.248;-0.844;2022-12-18T08:26:14;101009.11;;;-0.98;93.64
62926;BME280;55732;52.248;-0.844;2022-12-18T08:28:39;101002.69;;;-0.99;93.64
62926;BME280;55732;52.248;-0.844;2022-12-18T08:31:04;100998.88;;;-0.99;93.69
62926;BME280;55732;52.248;-0.844;2022-12-18T08:33:30;101007.82;;;-0.96;93.79
62926;BME280;55732;52.248;-0.844;2022-12-18T08:35:55;101005.48;;;-0.95;93.77
62926;BME280;55732;52.248;-0.844;2022-12-18T08:38:20;100999.31;;;-0.93;93.83
62926;BME280;55732;52.248;-0.844;2022-12-18T08:40:46;100992.81;;;-0.93;93.68
62926;BME280;55732;52.248;-0.844;2022-12-18T08:43:11;101001.43;;;-0.93;93.81
62926;BME280;55732;52.248;-0.844;2022-12-18T08:45:55;100999.27;;;-0.91;94.01
62926;BME280;55732;52.248;-0.844;2022-12-18T08:48:20;100995.63;;;-0.88;94.09
62926;BME280;55732;52.248;-0.844;2022-12-18T08:50:55;100989.44;;;-0.84;94.07
62926;BME280;55732;52.248;-0.844;2022-12-18T08:53:20;100984.77;;;-0.84;93.88
62926;BME280;55732;52.248;-0.844;2022-12-18T08:55:46;100970.26;;;-0.84;93.87
62926;BME280;55732;52.248;-0.844;2022-12-18T08:58:11;100987.63;;;-0.83;93.92
62926;BME280;55732;52.248;-0.844;2022-12-18T09:00:36;100989.58;;;-0.78;94.08
62926;BME280;55732;52.248;-0.844;2022-12-18T09:03:01;100993.83;;;-0.73;94.00
62926;BME280;55732;52.248;-0.844;2022-12-18T09:05:27;100996.61;;;-0.68;94.02
62926;BME280;55732;52.248;-0.844;2022-12-18T09:07:52;100993.45;;;-0.63;94.10
62926;BME280;55732;52.248;-0.844;2022-12-18T09:10:17;100990.01;;;-0.59;93.86
62926;BME280;55732;52.248;-0.844;2022-12-18T09:12:43;100983.93;;;-0.56;93.80
62926;BME280;55732;52.248;-0.844;2022-12-18T09:15:08;100981.08;;;-0.51;93.76
62926;BME280;55732;52.248;-0.844;2022-12-18T09:17:33;100980.16;;;-0.49;93.60
62926;BME280;55732;52.248;-0.844;2022-12-18T09:19:59;100980.08;;;-0.50;93.47
62926;BME280;55732;52.248;-0.844;2022-12-18T09:22:24;100982.48;;;-0.51;93.53
62926;BME280;55732;52.248;-0.844;2022-12-18T09:24:49;100980.66;;;-0.49;93.56
62926;BME280;55732;52.248;-0.844;2022-12-18T09:27:14;100985.95;;;-0.47;93.59
62926;BME280;55732;52.248;-0.844;2022-12-18T09:29:40;100986.86;;;-0.42;93.53
62926;BME280;55732;52.248;-0.844;2022-12-18T09:32:05;100980.42;;;-0.40;93.42
62926;BME280;55732;52.248;-0.844;2022-12-18T09:34:30;100979.03;;;-0.36;93.48
62926;BME280;55732;52.248;-0.844;2022-12-18T09:36:55;100968.14;;;-0.32;93.40
62926;BME280;55732;52.248;-0.844;2022-12-18T09:39:21;100968.26;;;-0.30;93.33
62926;BME280;55732;52.248;-0.844;2022-12-18T09:46:38;100967.32;;;-0.28;93.13
62926;BME280;55732;52.248;-0.844;2022-12-18T09:49:11;100970.00;;;-0.27;93.27
62926;BME280;55732;52.248;-0.844;2022-12-18T09:51:38;100961.80;;;-0.24;93.32
62926;BME280;55732;52.248;-0.844;2022-12-18T09:54:06;100965.38;;;-0.22;93.25
62926;BME280;55732;52.248;-0.844;2022-12-18T09:56:35;100960.60;;;-0.20;93.14
62926;BME280;55732;52.248;-0.844;2022-12-18T09:59:04;100963.20;;;-0.17;93.23
62926;BME280;55732;52.248;-0.844;2022-12-18T10:01:31;100954.79;;;-0.12;93.17
62926;BME280;55732;52.248;-0.844;2022-12-18T10:03:56;100955.98;;;-0.09;93.08
62926;BME280;55732;52.248;-0.844;2022-12-18T10:11:21;100935.65;;;0.05;92.97
62926;BME280;55732;52.248;-0.844;2022-12-18T10:13:57;100927.52;;;0.08;92.79
62926;BME280;55732;52.248;-0.844;2022-12-18T10:19:20;100910.90;;;0.16;92.68
62926;BME280;55732;52.248;-0.844;2022-12-18T10:24:32;100885.17;;;0.25;92.45
62926;BME280;55732;52.248;-0.844;2022-12-18T10:27:04;100877.73;;;0.29;92.52
62926;BME280;55732;52.248;-0.844;2022-12-18T10:29:34;100876.67;;;0.32;92.34
62926;BME280;55732;52.248;-0.844;2022-12-18T10:32:00;100876.14;;;0.36;92.19
62926;BME280;55732;52.248;-0.844;2022-12-18T10:34:25;100867.04;;;0.38;92.05
62926;BME280;55732;52.248;-0.844;2022-12-18T10:36:50;100867.44;;;0.40;91.93
62926;BME280;55732;52.248;-0.844;2022-12-18T10:39:22;100867.63;;;0.40;92.01
62926;BME280;55732;52.248;-0.844;2022-12-18T10:41:48;100871.35;;;0.41;92.09
62926;BME280;55732;52.248;-0.844;2022-12-18T10:44:20;100868.64;;;0.43;91.98
62926;BME280;55732;52.248;-0.844;2022-12-18T10:46:46;100863.77;;;0.42;91.93
62926;BME280;55732;52.248;-0.844;2022-12-18T10:49:27;100864.32;;;0.43;91.90
62926;BME280;55732;52.248;-0.844;2022-12-18T10:54:38;100843.44;;;0.45;91.82
62926;BME280;55732;52.248;-0.844;2022-12-18T10:57:29;100826.53;;;0.46;91.74
62926;BME280;55732;52.248;-0.844;2022-12-18T10:59:56;100815.33;;;0.48;91.88
62926;BME280;55732;52.248;-0.844;2022-12-18T11:02:26;100808.70;;;0.51;91.77
62926;BME280;55732;52.248;-0.844;2022-12-18T11:04:52;100803.46;;;0.54;91.72
62926;BME280;55732;52.248;-0.844;2022-12-18T11:07:18;100795.55;;;0.55;91.46
62926;BME280;55732;52.248;-0.844;2022-12-18T11:09:43;100785.20;;;0.56;91.65
62926;BME280;55732;52.248;-0.844;2022-12-18T11:12:18;100781.60;;;0.57;91.58
62926;BME280;55732;52.248;-0.844;2022-12-18T11:17:19;100774.36;;;0.57;91.55
62926;BME280;55732;52.248;-0.844;2022-12-18T11:19:45;100762.77;;;0.58;91.56
62926;BME280;55732;52.248;-0.844;2022-12-18T11:22:18;100752.95;;;0.60;91.50
62926;BME280;55732;52.248;-0.844;2022-12-18T11:24:49;100747.64;;;0.61;91.52
62926;BME280;55732;52.248;-0.844;2022-12-18T11:27:17;100732.74;;;0.65;91.59
62926;BME280;55732;52.248;-0.844;2022-12-18T11:29:43;100728.89;;;0.69;91.49
62926;BME280;55732;52.248;-0.844;2022-12-18T11:37:40;100734.20;;;0.76;91.31
62926;BME280;55732;52.248;-0.844;2022-12-18T11:40:30;100738.66;;;0.79;91.30
62926;BME280;55732;52.248;-0.844;2022-12-18T11:45:34;100723.34;;;0.86;91.14
62926;BME280;55732;52.248;-0.844;2022-12-18T11:50:32;100715.48;;;0.89;90.93
62926;BME280;55732;52.248;-0.844;2022-12-18T11:53:03;100720.76;;;0.91;91.03
62926;BME280;55732;52.248;-0.844;2022-12-18T11:55:31;100719.84;;;0.94;91.24
62926;BME280;55732;52.248;-0.844;2022-12-18T11:58:07;100713.34;;;0.96;91.08
62926;BME280;55732;52.248;-0.844;2022-12-18T12:00:40;100698.37;;;0.99;91.00
62926;BME280;55732;52.248;-0.844;2022-12-18T12:08:30;100690.70;;;1.16;90.88
62926;BME280;55732;52.248;-0.844;2022-12-18T12:13:37;100676.58;;;1.23;90.63
62926;BME280;55732;52.248;-0.844;2022-12-18T12:16:25;100664.76;;;1.27;90.61
62926;BME280;55732;52.248;-0.844;2022-12-18T12:24:20;100630.02;;;1.30;90.31
62926;BME280;55732;52.248;-0.844;2022-12-18T12:32:22;100603.92;;;1.33;90.14
62926;BME280;55732;52.248;-0.844;2022-12-18T12:37:40;100598.14;;;1.40;90.16
62926;BME280;55732;52.248;-0.844;2022-12-18T12:40:02;100590.48;;;1.45;90.35
62926;BME280;55732;52.248;-0.844;2022-12-18T12:42:32;100582.64;;;1.49;90.21
62926;BME280;55732;52.248;-0.844;2022-12-18T12:45:21;100578.73;;;1.52;90.20
62926;BME280;55732;52.248;-0.844;2022-12-18T12:47:48;100569.64;;;1.50;89.92
62926;BME280;55732;52.248;-0.844;2022-12-18T12:50:16;100567.30;;;1.47;90.12
62926;BME280;55732;52.248;-0.844;2022-12-18T12:52:44;100554.47;;;1.47;90.26
62926;BME280;55732;52.248;-0.844;2022-12-18T12:55:15;100546.58;;;1.49;90.23
62926;BME280;55732;52.248;-0.844;2022-12-18T12:57:42;100544.80;;;1.54;90.16
62926;BME280;55732;52.248;-0.844;2022-12-18T13:02:42;100543.21;;;1.58;90.28
62926;BME280;55732;52.248;-0.844;2022-12-18T13:07:38;100537.54;;;1.59;90.12
62926;BME280;55732;52.248;-0.844;2022-12-18T13:10:38;100532.93;;;1.61;90.27
62926;BME280;55732;52.248;-0.844;2022-12-18T13:13:04;100536.13;;;1.63;90.22
62926;BME280;55732;52.248;-0.844;2022-12-18T13:18:05;100528.42;;;1.67;90.17
62926;BME280;55732;52.248;-0.844;2022-12-18T13:20:41;100526.34;;;1.67;90.28
62926;BME280;55732;52.248;-0.844;2022-12-18T13:25:47;100518.35;;;1.67;90.50
62926;BME280;55732;52.248;-0.844;2022-12-18T13:28:13;100517.65;;;1.66;90.60
62926;BME280;55732;52.248;-0.844;2022-12-18T13:35:41;100495.91;;;1.65;90.96
62926;BME280;55732;52.248;-0.844;2022-12-18T13:45:45;100474.92;;;1.60;91.92
62926;BME280;55732;52.248;-0.844;2022-12-18T13:48:22;100459.46;;;1.54;92.17
62926;BME280;55732;52.248;-0.844;2022-12-18T13:50:49;100460.78;;;1.58;92.26
62926;BME280;55732;52.248;-0.844;2022-12-18T13:53:21;100461.44;;;1.57;92.41
62926;BME280;55732;52.248;-0.844;2022-12-18T13:55:48;100457.29;;;1.57;92.77
62926;BME280;55732;52.248;-0.844;2022-12-18T13:58:14;100445.83;;;1.56;93.14
62926;BME280;55732;52.248;-0.844;2022-12-18T14:00:43;100443.95;;;1.58;93.23
62926;BME280;55732;52.248;-0.844;2022-12-18T14:03:18;100435.67;;;1.59;93.34
62926;BME280;55732;52.248;-0.844;2022-12-18T14:05:44;100432.74;;;1.60;93.64
62926;BME280;55732;52.248;-0.844;2022-12-18T14:08:12;100429.49;;;1.61;93.75
62926;BME280;55732;52.248;-0.844;2022-12-18T14:10:42;100424.47;;;1.61;93.96
62926;BME280;55732;52.248;-0.844;2022-12-18T14:13:09;100415.98;;;1.61;94.23
62926;BME280;55732;52.248;-0.844;2022-12-18T14:15:36;100407.83;;;1.62;94.32
62926;BME280;55732;52.248;-0.844;2022-12-18T14:20:44;100406.48;;;1.63;94.63
62926;BME280;55732;52.248;-0.844;2022-12-18T14:25:53;100396.85;;;1.66;94.67
62926;BME280;55732;52.248;-0.844;2022-12-18T14:28:19;100396.74;;;1.68;94.74
62926;BME280;55732;52.248;-0.844;2022-12-18T14:30:47;100387.46;;;1.71;94.91